Time;durP1;ratioP1;P1;durP2;ratioP2;P2;SDS_P1;SDS_P2;PMS_P1;PMS_P2;Temp;Humidity;BMP_temperature;BMP_pressure;BME280_temperature;BME280_humidity;BME280_pressure;Samples;Min_cycle;Max_cycle;Signal;HPM_P1;HPM_P2
2022/03/30 00:01:27;;;;;;;47.80;30.60;;;;;;;;;;4919656;29;20219;-75
2022/03/30 00:03:53;;;;;;;44.83;27.30;;;;;;;;;;4903695;29;20197;-76
2022/03/30 00:06:19;;;;;;;44.72;28.50;;;;;;;;;;4909743;29;20476;-75
2022/03/30 00:08:45;;;;;;;43.25;28.10;;;;;;;;;;4901945;29;20191;-76
2022/03/30 00:11:11;;;;;;;46.17;28.87;;;;;;;;;;4914396;29;20229;-75
2022/03/30 00:13:38;;;;;;;45.13;30.30;;;;;;;;;;4906550;29;20534;-75
2022/03/30 00:16:04;;;;;;;50.03;31.48;;;;;;;;;;4911080;29;20182;-74
2022/03/30 00:18:30;;;;;;;46.00;30.00;;;;;;;;;;4910331;29;20179;-76
2022/03/30 00:20:56;;;;;;;43.92;29.83;;;;;;;;;;4913381;29;20290;-75
2022/03/30 00:23:22;;;;;;;43.70;28.33;;;;;;;;;;4909011;29;20685;-75
2022/03/30 00:25:48;;;;;;;42.05;26.52;;;;;;;;;;4909168;29;20806;-76
2022/03/30 00:28:14;;;;;;;46.33;30.00;;;;;;;;;;4927878;29;20207;-76
2022/03/30 00:30:40;;;;;;;43.80;28.48;;;;;;;;;;4905648;29;20815;-75
2022/03/30 00:33:06;;;;;;;44.27;29.80;;;;;;;;;;4905789;29;20187;-74
2022/03/30 00:35:32;;;;;;;42.03;30.03;;;;;;;;;;4910043;29;20912;-76
2022/03/30 00:37:58;;;;;;;41.77;28.07;;;;;;;;;;4907319;29;21028;-75
2022/03/30 00:40:25;;;;;;;49.08;29.38;;;;;;;;;;4908670;29;20845;-76
2022/03/30 00:42:51;;;;;;;43.05;28.55;;;;;;;;;;4914787;29;20302;-75
2022/03/30 00:45:18;;;;;;;42.00;28.73;;;;;;;;;;4910784;29;20279;-75
2022/03/30 00:47:45;;;;;;;45.10;26.63;;;;;;;;;;4916406;29;20435;-75
2022/03/30 00:50:12;;;;;;;47.17;29.42;;;;;;;;;;4914849;29;20216;-75
2022/03/30 00:52:38;;;;;;;44.42;27.90;;;;;;;;;;4919067;29;20204;-77
2022/03/30 00:55:06;;;;;;;42.65;28.88;;;;;;;;;;4904969;29;20196;-75
2022/03/30 00:57:32;;;;;;;47.15;29.23;;;;;;;;;;4909725;29;20190;-75
2022/03/30 00:59:58;;;;;;;42.25;29.15;;;;;;;;;;4916503;29;20194;-73
2022/03/30 01:02:25;;;;;;;45.28;27.17;;;;;;;;;;4902217;29;20199;-76
2022/03/30 01:04:52;;;;;;;42.78;27.10;;;;;;;;;;4906779;29;20260;-77
2022/03/30 01:07:18;;;;;;;42.80;27.63;;;;;;;;;;4902264;29;20180;-74
2022/03/30 01:09:44;;;;;;;47.90;29.90;;;;;;;;;;4916460;29;20183;-75
2022/03/30 01:12:10;;;;;;;39.63;25.63;;;;;;;;;;4907203;29;20464;-74
2022/03/30 01:14:37;;;;;;;46.20;27.73;;;;;;;;;;4915702;29;20182;-75
2022/03/30 01:17:03;;;;;;;43.50;27.63;;;;;;;;;;4916856;29;20230;-75
2022/03/30 01:19:30;;;;;;;42.58;27.60;;;;;;;;;;4913866;29;20194;-75
2022/03/30 01:21:56;;;;;;;41.42;28.70;;;;;;;;;;4902973;29;20282;-75
2022/03/30 01:24:22;;;;;;;43.85;28.33;;;;;;;;;;4908140;29;20221;-75
2022/03/30 01:26:48;;;;;;;48.40;28.25;;;;;;;;;;4913436;29;20855;-76
2022/03/30 01:34:44;;;;;;;39.58;26.45;;;;;;;;;;4909858;29;20562;-76
2022/03/30 01:37:11;;;;;;;41.78;27.15;;;;;;;;;;4908529;29;20179;-74
2022/03/30 01:39:37;;;;;;;39.03;26.48;;;;;;;;;;4915008;29;20609;-74
2022/03/30 01:42:04;;;;;;;47.75;30.15;;;;;;;;;;4906513;29;20290;-74
2022/03/30 01:44:30;;;;;;;44.85;28.20;;;;;;;;;;4903777;29;20192;-75
2022/03/30 01:46:56;;;;;;;42.25;25.50;;;;;;;;;;4916454;29;20265;-75
2022/03/30 01:49:22;;;;;;;40.88;28.20;;;;;;;;;;4912374;29;20186;-74
2022/03/30 01:51:49;;;;;;;44.13;25.65;;;;;;;;;;4907961;29;20215;-76
2022/03/30 01:54:16;;;;;;;46.38;26.40;;;;;;;;;;4919403;29;20175;-76
2022/03/30 01:56:42;;;;;;;46.42;27.67;;;;;;;;;;4912438;29;20636;-76
2022/03/30 01:59:08;;;;;;;48.50;27.17;;;;;;;;;;4917633;29;20290;-76
2022/03/30 02:01:34;;;;;;;41.97;26.60;;;;;;;;;;4916668;29;20461;-74
2022/03/30 02:04:00;;;;;;;41.17;26.60;;;;;;;;;;4911223;29;20529;-74
2022/03/30 02:06:26;;;;;;;47.47;29.58;;;;;;;;;;4920929;29;20439;-76
2022/03/30 02:08:52;;;;;;;39.78;25.52;;;;;;;;;;4901403;29;20218;-75
2022/03/30 02:11:18;;;;;;;52.10;27.08;;;;;;;;;;4914085;29;20229;-75
2022/03/30 02:13:44;;;;;;;38.30;26.67;;;;;;;;;;4909381;29;20230;-75
2022/03/30 02:16:10;;;;;;;40.03;26.42;;;;;;;;;;4901123;29;20194;-74
2022/03/30 02:18:36;;;;;;;41.00;25.10;;;;;;;;;;4908610;29;20179;-75
2022/03/30 02:21:02;;;;;;;40.37;25.70;;;;;;;;;;4905767;29;20968;-74
2022/03/30 02:23:28;;;;;;;37.43;25.13;;;;;;;;;;4901269;29;20542;-75
2022/03/30 02:25:54;;;;;;;38.00;25.77;;;;;;;;;;4915993;29;20439;-75
2022/03/30 02:28:20;;;;;;;38.63;24.70;;;;;;;;;;4913908;29;20477;-76
2022/03/30 02:30:47;;;;;;;44.47;26.90;;;;;;;;;;4900856;29;20483;-74
2022/03/30 02:33:13;;;;;;;36.30;24.70;;;;;;;;;;4900749;29;20928;-75
2022/03/30 02:35:39;;;;;;;41.28;24.85;;;;;;;;;;4911359;29;20222;-75
2022/03/30 02:38:05;;;;;;;43.53;25.38;;;;;;;;;;4915573;29;20176;-76
2022/03/30 02:40:31;;;;;;;39.80;24.40;;;;;;;;;;4901003;29;20208;-74
2022/03/30 02:42:57;;;;;;;38.90;23.97;;;;;;;;;;4912793;29;20612;-76
2022/03/30 02:45:23;;;;;;;42.30;26.23;;;;;;;;;;4901248;29;20494;-75
2022/03/30 02:50:34;;;;;;;42.75;25.65;;;;;;;;;;4907936;29;20521;-75
2022/03/30 02:53:00;;;;;;;40.07;25.07;;;;;;;;;;4904692;29;20215;-73
2022/03/30 02:55:26;;;;;;;37.13;24.83;;;;;;;;;;4902765;29;20439;-75
2022/03/30 02:57:52;;;;;;;41.53;26.30;;;;;;;;;;4900204;29;20439;-76
2022/03/30 03:00:18;;;;;;;35.97;24.13;;;;;;;;;;4908214;29;20248;-74
2022/03/30 03:02:44;;;;;;;38.97;25.15;;;;;;;;;;4919442;29;20455;-75
2022/03/30 03:05:10;;;;;;;38.97;25.20;;;;;;;;;;4912528;29;20239;-74
2022/03/30 03:07:37;;;;;;;42.67;24.05;;;;;;;;;;4914419;29;20273;-75
2022/03/30 03:10:03;;;;;;;37.72;22.85;;;;;;;;;;4902243;29;20198;-76
2022/03/30 03:12:29;;;;;;;38.85;23.90;;;;;;;;;;4907210;29;20231;-73
2022/03/30 03:14:55;;;;;;;39.53;24.70;;;;;;;;;;4919730;29;20220;-75
2022/03/30 03:17:21;;;;;;;38.47;26.03;;;;;;;;;;4901010;29;20441;-75
2022/03/30 03:19:47;;;;;;;38.97;24.42;;;;;;;;;;4904905;29;20476;-76
2022/03/30 03:22:13;;;;;;;41.00;24.93;;;;;;;;;;4916223;29;20291;-74
2022/03/30 03:24:39;;;;;;;37.63;23.88;;;;;;;;;;4910260;29;20446;-77
2022/03/30 03:27:05;;;;;;;43.47;25.83;;;;;;;;;;4908180;29;20189;-74
2022/03/30 03:29:31;;;;;;;45.85;26.30;;;;;;;;;;4916392;29;20191;-75
2022/03/30 03:31:57;;;;;;;41.27;24.50;;;;;;;;;;4902405;29;20295;-74
2022/03/30 03:34:23;;;;;;;39.90;24.17;;;;;;;;;;4916025;29;20434;-74
2022/03/30 03:36:49;;;;;;;41.85;25.40;;;;;;;;;;4913138;29;20803;-76
2022/03/30 03:39:16;;;;;;;37.55;24.40;;;;;;;;;;4902791;29;20180;-74
2022/03/30 03:41:43;;;;;;;36.90;25.17;;;;;;;;;;4901325;29;20538;-76
2022/03/30 03:44:09;;;;;;;35.13;24.05;;;;;;;;;;4903199;29;20181;-75
2022/03/30 03:46:35;;;;;;;46.67;26.13;;;;;;;;;;4900542;29;20207;-74
2022/03/30 03:49:01;;;;;;;41.85;25.33;;;;;;;;;;4910153;29;20435;-74
2022/03/30 03:51:28;;;;;;;38.60;25.77;;;;;;;;;;4913673;29;20304;-76
2022/03/30 03:53:54;;;;;;;41.08;25.27;;;;;;;;;;4903030;29;20188;-77
2022/03/30 03:56:21;;;;;;;39.28;24.10;;;;;;;;;;4903838;29;20230;-76
2022/03/30 03:58:49;;;;;;;37.58;24.48;;;;;;;;;;4908372;29;20187;-76
2022/03/30 04:01:15;;;;;;;35.30;26.00;;;;;;;;;;4899347;29;20210;-76
2022/03/30 04:03:44;;;;;;;43.83;28.15;;;;;;;;;;4908955;29;20187;-75
2022/03/30 04:06:10;;;;;;;39.30;27.10;;;;;;;;;;4901276;29;20187;-75
2022/03/30 04:08:36;;;;;;;40.35;25.90;;;;;;;;;;4900006;29;20184;-74
2022/03/30 04:11:02;;;;;;;39.13;26.53;;;;;;;;;;4897951;29;20718;-75
2022/03/30 04:13:28;;;;;;;41.23;23.90;;;;;;;;;;4913634;29;20441;-76
2022/03/30 04:15:54;;;;;;;36.33;25.67;;;;;;;;;;4915483;29;20425;-77
2022/03/30 04:18:21;;;;;;;39.43;25.57;;;;;;;;;;4901113;29;20436;-75
2022/03/30 04:20:47;;;;;;;39.67;25.05;;;;;;;;;;4899716;29;20469;-76
2022/03/30 04:23:13;;;;;;;35.27;22.87;;;;;;;;;;4904354;29;20205;-75
2022/03/30 04:25:39;;;;;;;42.13;25.53;;;;;;;;;;4918218;29;20437;-75
2022/03/30 04:28:05;;;;;;;37.80;24.80;;;;;;;;;;4911768;29;20516;-75
2022/03/30 04:30:31;;;;;;;42.95;26.23;;;;;;;;;;4913168;29;20504;-75
2022/03/30 04:32:57;;;;;;;35.72;23.90;;;;;;;;;;4916276;29;20189;-75
2022/03/30 04:35:25;;;;;;;43.33;26.67;;;;;;;;;;4913364;29;20272;-75
2022/03/30 04:38:00;;;;;;;39.08;24.02;;;;;;;;;;4915704;29;20423;-76
2022/03/30 04:40:26;;;;;;;48.60;26.10;;;;;;;;;;4919553;29;20193;-74
2022/03/30 04:42:53;;;;;;;46.30;26.10;;;;;;;;;;4919485;29;20206;-76
2022/03/30 04:45:19;;;;;;;41.83;26.00;;;;;;;;;;4919010;29;20265;-77
2022/03/30 04:47:45;;;;;;;39.28;26.05;;;;;;;;;;4916695;29;20552;-75
2022/03/30 04:50:11;;;;;;;43.42;24.33;;;;;;;;;;4922024;29;20206;-75
2022/03/30 04:52:38;;;;;;;39.28;25.23;;;;;;;;;;4909395;29;20290;-76
2022/03/30 04:55:05;;;;;;;38.28;24.65;;;;;;;;;;4907243;29;20697;-75
2022/03/30 04:57:31;;;;;;;43.22;25.90;;;;;;;;;;4906681;29;20285;-76
2022/03/30 04:59:57;;;;;;;44.27;24.77;;;;;;;;;;4903782;29;20623;-76
2022/03/30 05:02:25;;;;;;;38.67;24.23;;;;;;;;;;4910455;29;20444;-75
2022/03/30 05:04:51;;;;;;;42.10;25.10;;;;;;;;;;4905860;29;20243;-74
2022/03/30 05:07:17;;;;;;;43.20;24.75;;;;;;;;;;4909490;29;20203;-77
2022/03/30 05:09:43;;;;;;;38.73;24.57;;;;;;;;;;4919525;29;20222;-75
2022/03/30 05:12:09;;;;;;;36.58;25.10;;;;;;;;;;4913893;29;20474;-75
2022/03/30 05:14:35;;;;;;;43.78;25.45;;;;;;;;;;4918135;29;20194;-75
2022/03/30 05:17:02;;;;;;;41.50;25.10;;;;;;;;;;4919658;29;20677;-77
2022/03/30 05:19:28;;;;;;;45.85;26.88;;;;;;;;;;4912659;29;20432;-74
2022/03/30 05:21:54;;;;;;;43.22;26.90;;;;;;;;;;4915557;29;20258;-76
2022/03/30 05:24:20;;;;;;;43.38;24.75;;;;;;;;;;4909535;29;20213;-75
2022/03/30 05:26:47;;;;;;;38.87;25.27;;;;;;;;;;4916831;29;20196;-77
2022/03/30 05:29:13;;;;;;;42.83;25.58;;;;;;;;;;4912179;29;20756;-76
2022/03/30 05:31:39;;;;;;;42.38;26.88;;;;;;;;;;4917699;29;20222;-77
2022/03/30 05:34:05;;;;;;;40.83;24.50;;;;;;;;;;4917172;29;20207;-74
2022/03/30 05:36:31;;;;;;;36.27;23.50;;;;;;;;;;4918596;29;20510;-74
2022/03/30 05:38:57;;;;;;;41.90;26.63;;;;;;;;;;4916468;29;20439;-74
2022/03/30 05:41:23;;;;;;;40.83;24.35;;;;;;;;;;4913733;29;20270;-74
2022/03/30 05:43:49;;;;;;;48.00;27.70;;;;;;;;;;4916157;29;20200;-74
2022/03/30 05:46:15;;;;;;;47.50;26.70;;;;;;;;;;4915443;29;20520;-76
2022/03/30 05:48:41;;;;;;;47.37;24.20;;;;;;;;;;4912255;29;20924;-75
2022/03/30 05:51:07;;;;;;;43.27;25.20;;;;;;;;;;4909234;29;20495;-76
2022/03/30 05:53:33;;;;;;;43.85;25.17;;;;;;;;;;4910171;29;20434;-74
2022/03/30 05:55:59;;;;;;;40.80;24.83;;;;;;;;;;4902565;29;20235;-74
2022/03/30 05:58:25;;;;;;;44.20;26.00;;;;;;;;;;4901274;29;20195;-75
2022/03/30 06:00:51;;;;;;;44.60;25.43;;;;;;;;;;4912600;29;20211;-76
2022/03/30 06:03:17;;;;;;;39.20;24.83;;;;;;;;;;4916860;29;20429;-73
2022/03/30 06:05:43;;;;;;;54.40;25.25;;;;;;;;;;4916041;29;20550;-75
2022/03/30 06:08:09;;;;;;;46.05;26.35;;;;;;;;;;4916157;29;20242;-76
2022/03/30 06:10:35;;;;;;;42.40;25.15;;;;;;;;;;4904806;29;20222;-74
2022/03/30 06:13:02;;;;;;;45.45;25.15;;;;;;;;;;4909877;29;20261;-74
2022/03/30 06:15:28;;;;;;;40.67;24.67;;;;;;;;;;4912571;29;20187;-74
2022/03/30 06:17:55;;;;;;;40.65;24.05;;;;;;;;;;4918401;29;20273;-76
2022/03/30 06:20:24;;;;;;;48.35;26.02;;;;;;;;;;4913697;29;20597;-75
2022/03/30 06:22:51;;;;;;;37.50;22.02;;;;;;;;;;4918520;29;20226;-76
2022/03/30 06:25:18;;;;;;;41.05;25.70;;;;;;;;;;4918852;29;20217;-75
2022/03/30 06:27:44;;;;;;;35.97;24.25;;;;;;;;;;4918904;29;20238;-74
2022/03/30 06:30:10;;;;;;;43.83;23.33;;;;;;;;;;4918523;29;20186;-75
2022/03/30 06:32:37;;;;;;;39.53;24.25;;;;;;;;;;4917077;29;20203;-76
2022/03/30 06:35:03;;;;;;;39.30;23.65;;;;;;;;;;4918225;29;20186;-75
2022/03/30 06:37:29;;;;;;;43.70;25.02;;;;;;;;;;4918550;29;20174;-75
2022/03/30 06:39:55;;;;;;;48.15;24.13;;;;;;;;;;4917275;29;20191;-76
2022/03/30 06:42:21;;;;;;;40.17;23.30;;;;;;;;;;4918259;29;20225;-75
2022/03/30 06:44:47;;;;;;;37.50;23.05;;;;;;;;;;4914443;29;20554;-75
2022/03/30 06:47:13;;;;;;;44.17;25.52;;;;;;;;;;4899401;29;20180;-73
2022/03/30 06:49:40;;;;;;;43.85;25.25;;;;;;;;;;4915745;29;20186;-76
2022/03/30 06:52:06;;;;;;;48.25;24.35;;;;;;;;;;4917356;29;20217;-74
2022/03/30 06:54:33;;;;;;;42.58;24.05;;;;;;;;;;4918239;29;20217;-76
2022/03/30 06:56:59;;;;;;;39.33;23.17;;;;;;;;;;4918153;29;20186;-74
2022/03/30 06:59:26;;;;;;;40.70;25.10;;;;;;;;;;4918402;29;20550;-75
2022/03/30 07:01:53;;;;;;;49.67;24.63;;;;;;;;;;4917547;29;20205;-76
2022/03/30 07:04:19;;;;;;;41.25;23.23;;;;;;;;;;4918222;29;20546;-75
2022/03/30 07:12:14;;;;;;;37.10;24.27;;;;;;;;;;4917565;29;20230;-76
2022/03/30 07:14:40;;;;;;;37.40;24.90;;;;;;;;;;4917819;29;20183;-75
2022/03/30 07:17:06;;;;;;;36.05;23.20;;;;;;;;;;4917771;29;20423;-74
2022/03/30 07:19:32;;;;;;;41.80;24.92;;;;;;;;;;4917932;29;20206;-75
2022/03/30 07:21:58;;;;;;;42.92;23.65;;;;;;;;;;4917450;29;20211;-74
2022/03/30 07:24:24;;;;;;;35.70;23.90;;;;;;;;;;4917687;29;20207;-76
2022/03/30 07:26:50;;;;;;;41.53;24.00;;;;;;;;;;4917683;29;20787;-75
2022/03/30 07:29:17;;;;;;;34.22;22.60;;;;;;;;;;4917750;29;20427;-74
2022/03/30 07:31:43;;;;;;;37.60;23.02;;;;;;;;;;4917328;29;20218;-77
2022/03/30 07:34:09;;;;;;;45.08;22.83;;;;;;;;;;4917653;29;20191;-75
2022/03/30 07:36:35;;;;;;;42.47;24.00;;;;;;;;;;4917743;29;20187;-74
2022/03/30 07:39:01;;;;;;;39.63;23.65;;;;;;;;;;4917449;29;20475;-75
2022/03/30 07:41:27;;;;;;;44.23;25.80;;;;;;;;;;4917174;29;20206;-77
2022/03/30 07:43:53;;;;;;;37.50;24.03;;;;;;;;;;4914470;29;20428;-75
2022/03/30 07:46:19;;;;;;;45.10;25.80;;;;;;;;;;4903330;29;20778;-75
2022/03/30 07:48:45;;;;;;;35.72;22.88;;;;;;;;;;4898402;29;20461;-77
2022/03/30 07:51:11;;;;;;;40.80;24.10;;;;;;;;;;4897762;29;20707;-76
2022/03/30 07:53:38;;;;;;;40.73;25.73;;;;;;;;;;4898595;29;20427;-76
2022/03/30 07:56:04;;;;;;;37.90;23.42;;;;;;;;;;4898424;29;20417;-75
2022/03/30 07:58:30;;;;;;;38.50;23.52;;;;;;;;;;4898425;29;20187;-75
2022/03/30 08:00:56;;;;;;;41.45;23.90;;;;;;;;;;4897595;29;20200;-75
2022/03/30 08:03:22;;;;;;;35.95;22.73;;;;;;;;;;4898281;29;20185;-75
2022/03/30 08:05:48;;;;;;;36.10;22.80;;;;;;;;;;4898387;29;20535;-76
2022/03/30 08:08:14;;;;;;;36.37;24.23;;;;;;;;;;4898214;29;20241;-76
2022/03/30 08:10:40;;;;;;;39.72;22.45;;;;;;;;;;4897698;29;20509;-75
2022/03/30 08:13:06;;;;;;;41.63;22.42;;;;;;;;;;4896846;29;20240;-75
2022/03/30 08:15:35;;;;;;;37.42;23.65;;;;;;;;;;4897969;29;20210;-75
2022/03/30 08:18:01;;;;;;;41.72;25.33;;;;;;;;;;4898066;29;20225;-76
2022/03/30 08:23:12;;;;;;;38.15;22.15;;;;;;;;;;4898079;29;20234;-75
2022/03/30 08:25:38;;;;;;;32.53;21.85;;;;;;;;;;4897997;29;20189;-77
2022/03/30 08:28:04;;;;;;;41.53;23.05;;;;;;;;;;4898159;29;20189;-78
2022/03/30 08:30:31;;;;;;;34.08;21.17;;;;;;;;;;4897592;29;20611;-75
2022/03/30 08:32:58;;;;;;;40.20;21.80;;;;;;;;;;4896794;29;20181;-75
2022/03/30 08:35:25;;;;;;;34.30;20.73;;;;;;;;;;4906599;29;20657;-75
2022/03/30 08:37:51;;;;;;;38.85;22.15;;;;;;;;;;4916897;29;20551;-77
2022/03/30 08:40:17;;;;;;;28.90;20.83;;;;;;;;;;4916511;29;20181;-75
2022/03/30 08:42:44;;;;;;;46.17;22.10;;;;;;;;;;4931426;29;20440;-76
2022/03/30 08:45:10;;;;;;;32.83;19.00;;;;;;;;;;4916773;29;20185;-76
2022/03/30 08:47:36;;;;;;;31.70;20.65;;;;;;;;;;4916684;29;20434;-77
2022/03/30 08:50:03;;;;;;;31.40;19.27;;;;;;;;;;4906018;29;20246;-76
2022/03/30 08:52:30;;;;;;;30.30;18.17;;;;;;;;;;4897561;29;20780;-75
2022/03/30 08:54:57;;;;;;;30.80;18.87;;;;;;;;;;4903768;29;20764;-78
2022/03/30 08:57:23;;;;;;;27.10;17.73;;;;;;;;;;4907737;29;20415;-76
2022/03/30 08:59:57;;;;;;;31.60;18.73;;;;;;;;;;4905853;29;20425;-74
2022/03/30 09:02:23;;;;;;;28.10;18.37;;;;;;;;;;4907771;29;20431;-76
2022/03/30 09:05:09;;;;;;;29.47;17.20;;;;;;;;;;4913845;29;20810;-74
2022/03/30 09:07:35;;;;;;;30.63;18.27;;;;;;;;;;4914940;29;20420;-77
2022/03/30 09:10:01;;;;;;;31.80;18.03;;;;;;;;;;4905951;29;20416;-75
2022/03/30 09:12:27;;;;;;;26.33;16.93;;;;;;;;;;4904418;29;20451;-76
2022/03/30 09:14:59;;;;;;;19.80;15.30;;;;;;;;;;4899959;29;20502;-77
2022/03/30 09:17:25;;;;;;;28.03;16.80;;;;;;;;;;4910091;29;20422;-77
2022/03/30 09:19:52;;;;;;;28.50;18.83;;;;;;;;;;4919865;29;20463;-76
2022/03/30 09:22:18;;;;;;;28.33;17.03;;;;;;;;;;4934003;29;20428;-77
2022/03/30 09:24:45;;;;;;;27.20;16.30;;;;;;;;;;4919677;29;20928;-77
2022/03/30 09:27:11;;;;;;;27.57;14.87;;;;;;;;;;4919533;29;20426;-78
2022/03/30 09:29:37;;;;;;;25.57;15.53;;;;;;;;;;4919701;29;20727;-76
2022/03/30 09:32:06;;;;;;;23.17;15.00;;;;;;;;;;4915351;29;20522;-78
2022/03/30 09:34:33;;;;;;;19.20;13.40;;;;;;;;;;4900709;29;20451;-77
2022/03/30 09:37:00;;;;;;;23.83;14.07;;;;;;;;;;4900842;29;20444;-77
2022/03/30 09:39:33;;;;;;;20.00;14.50;;;;;;;;;;4900612;29;20473;-75
2022/03/30 09:42:00;;;;;;;26.10;16.27;;;;;;;;;;4899943;29;20414;-75
2022/03/30 09:44:28;;;;;;;21.80;16.10;;;;;;;;;;4899425;29;20410;-76
2022/03/30 09:47:05;;;;;;;22.93;15.73;;;;;;;;;;4900401;29;20445;-76
2022/03/30 09:49:35;;;;;;;31.73;17.30;;;;;;;;;;4900424;29;20397;-77
2022/03/30 09:52:02;;;;;;;28.93;16.97;;;;;;;;;;4899721;29;20495;-77
2022/03/30 09:54:37;;;;;;;22.23;16.13;;;;;;;;;;4900376;29;20748;-77
2022/03/30 09:57:08;;;;;;;22.03;15.37;;;;;;;;;;4900308;29;20905;-75
2022/03/30 09:59:54;;;;;;;22.37;15.33;;;;;;;;;;4900440;29;20418;-77
2022/03/30 10:02:20;;;;;;;22.60;15.37;;;;;;;;;;4899776;29;20414;-78
2022/03/30 10:04:47;;;;;;;24.23;14.70;;;;;;;;;;4900271;29;20758;-75
2022/03/30 10:07:13;;;;;;;21.20;14.83;;;;;;;;;;4900269;29;20462;-74
2022/03/30 10:09:40;;;;;;;24.87;15.10;;;;;;;;;;4898891;29;20484;-77
2022/03/30 10:12:07;;;;;;;22.33;15.13;;;;;;;;;;4898240;29;20475;-75
2022/03/30 10:14:34;;;;;;;23.53;16.33;;;;;;;;;;4898665;29;20449;-77
2022/03/30 10:17:00;;;;;;;21.10;15.80;;;;;;;;;;4898749;29;20888;-75
2022/03/30 10:19:28;;;;;;;19.90;15.70;;;;;;;;;;4898615;29;20415;-77
2022/03/30 10:22:01;;;;;;;22.73;14.13;;;;;;;;;;4899240;29;20480;-77
2022/03/30 10:24:38;;;;;;;24.87;15.60;;;;;;;;;;4899723;29;20436;-76
2022/03/30 10:27:13;;;;;;;26.20;16.40;;;;;;;;;;4899858;29;20498;-75
2022/03/30 10:29:47;;;;;;;21.70;14.37;;;;;;;;;;4899720;29;20429;-76
2022/03/30 10:32:19;;;;;;;17.13;13.77;;;;;;;;;;4899166;29;20482;-78
2022/03/30 10:34:52;;;;;;;19.20;14.47;;;;;;;;;;4899645;29;20446;-74
2022/03/30 10:37:25;;;;;;;21.70;14.10;;;;;;;;;;4899695;29;20414;-77
2022/03/30 10:39:55;;;;;;;18.80;13.23;;;;;;;;;;4899644;29;20742;-77
2022/03/30 10:42:21;;;;;;;20.90;12.83;;;;;;;;;;4898998;29;20534;-75
2022/03/30 10:44:47;;;;;;;16.97;13.00;;;;;;;;;;4899500;29;20416;-76
2022/03/30 10:47:20;;;;;;;17.60;12.37;;;;;;;;;;4899576;29;20419;-77
2022/03/30 10:49:46;;;;;;;21.07;12.90;;;;;;;;;;4899481;29;20411;-75
2022/03/30 10:52:24;;;;;;;20.60;13.90;;;;;;;;;;4898955;29;20838;-78
2022/03/30 10:54:55;;;;;;;19.80;13.93;;;;;;;;;;4897833;29;20427;-75
2022/03/30 10:57:40;;;;;;;16.70;13.33;;;;;;;;;;4898030;29;20414;-76
2022/03/30 11:00:07;;;;;;;18.70;12.90;;;;;;;;;;4899036;29;20761;-75
2022/03/30 11:02:42;;;;;;;18.20;12.57;;;;;;;;;;4898624;29;20431;-76
2022/03/30 11:05:09;;;;;;;17.57;13.00;;;;;;;;;;4899196;29;20416;-75
2022/03/30 11:07:35;;;;;;;19.60;13.43;;;;;;;;;;4899094;29;20416;-77
2022/03/30 11:10:34;;;;;;;16.23;13.10;;;;;;;;;;4899017;29;20471;-74
2022/03/30 11:13:11;;;;;;;16.30;12.10;;;;;;;;;;4897706;29;20488;-74
2022/03/30 11:15:56;;;;;;;17.67;12.80;;;;;;;;;;4899009;29;20426;-77
2022/03/30 11:18:22;;;;;;;20.73;12.80;;;;;;;;;;4898743;29;20878;-75
2022/03/30 11:21:07;;;;;;;17.90;12.60;;;;;;;;;;4897138;29;20515;-77
2022/03/30 11:23:33;;;;;;;19.47;13.60;;;;;;;;;;4898677;29;20447;-76
2022/03/30 11:25:59;;;;;;;23.30;15.30;;;;;;;;;;4881995;29;20420;-77
2022/03/30 11:28:40;;;;;;;16.20;13.63;;;;;;;;;;4898772;29;20412;-79
2022/03/30 11:31:19;;;;;;;15.10;12.40;;;;;;;;;;4898252;29;20510;-75
2022/03/30 11:33:45;;;;;;;17.03;13.50;;;;;;;;;;4898340;29;20412;-76
2022/03/30 11:36:11;;;;;;;16.83;14.10;;;;;;;;;;4899949;29;20890;-76
2022/03/30 11:38:39;;;;;;;20.13;14.33;;;;;;;;;;4917316;29;20450;-77
2022/03/30 11:41:06;;;;;;;23.67;14.53;;;;;;;;;;4931495;29;20857;-75
2022/03/30 11:45:12;;;;;;;18.27;13.40;;;;;;;;;;4912010;29;20509;-75
2022/03/30 11:46:22;;;;;;;21.17;13.67;;;;;;;;;;4917508;29;21056;-75
2022/03/30 11:48:48;;;;;;;18.60;12.90;;;;;;;;;;4917337;29;20830;-76
2022/03/30 11:51:14;;;;;;;20.57;13.17;;;;;;;;;;4910280;29;20479;-77
2022/03/30 11:53:41;;;;;;;20.47;13.53;;;;;;;;;;4898369;29;20925;-77
2022/03/30 11:56:09;;;;;;;19.70;13.37;;;;;;;;;;4897823;29;20419;-75
2022/03/30 11:58:43;;;;;;;19.30;13.03;;;;;;;;;;4898306;29;20480;-78
2022/03/30 12:01:10;;;;;;;20.97;13.40;;;;;;;;;;4897717;29;20467;-76
2022/03/30 12:03:37;;;;;;;22.20;13.37;;;;;;;;;;4898369;29;20430;-77
2022/03/30 12:06:04;;;;;;;20.67;14.30;;;;;;;;;;4898191;29;20921;-75
2022/03/30 12:08:40;;;;;;;16.67;12.37;;;;;;;;;;4898308;29;20443;-75
2022/03/30 12:11:06;;;;;;;15.17;12.60;;;;;;;;;;4905339;29;20995;-75
2022/03/30 12:13:32;;;;;;;18.93;13.53;;;;;;;;;;4917133;29;20784;-77
2022/03/30 12:16:09;;;;;;;19.40;13.13;;;;;;;;;;4916785;29;20422;-75
2022/03/30 12:19:01;;;;;;;17.40;13.13;;;;;;;;;;4911323;29;20402;-73
2022/03/30 12:21:28;;;;;;;18.10;11.87;;;;;;;;;;4907233;29;20481;-77
2022/03/30 12:23:55;;;;;;;17.90;13.40;;;;;;;;;;4907364;29;20486;-75
2022/03/30 12:26:21;;;;;;;19.93;14.10;;;;;;;;;;4928412;29;20994;-73
2022/03/30 12:28:47;;;;;;;17.80;12.27;;;;;;;;;;4916809;29;20419;-74
2022/03/30 12:31:16;;;;;;;16.80;12.93;;;;;;;;;;4916196;29;20506;-74
2022/03/30 12:33:51;;;;;;;19.17;12.23;;;;;;;;;;4914310;29;20757;-73
2022/03/30 12:36:18;;;;;;;19.70;11.50;;;;;;;;;;4896610;29;20398;-78
2022/03/30 12:38:45;;;;;;;14.80;11.50;;;;;;;;;;4897967;29;20420;-74
2022/03/30 12:41:11;;;;;;;18.10;11.70;;;;;;;;;;4897382;29;20801;-79
2022/03/30 12:43:39;;;;;;;15.93;12.30;;;;;;;;;;4897759;29;20781;-77
2022/03/30 12:46:14;;;;;;;15.93;12.33;;;;;;;;;;4899096;29;20390;-76
2022/03/30 12:48:41;;;;;;;16.77;10.93;;;;;;;;;;4901794;29;20498;-75
2022/03/30 12:51:17;;;;;;;21.73;12.47;;;;;;;;;;4900999;29;20470;-75
2022/03/30 12:53:45;;;;;;;14.53;11.97;;;;;;;;;;4901539;29;20407;-75
2022/03/30 12:56:17;;;;;;;14.17;10.90;;;;;;;;;;4900387;29;20431;-77
2022/03/30 12:58:50;;;;;;;16.23;12.77;;;;;;;;;;4901543;29;20412;-76
2022/03/30 13:01:32;;;;;;;18.50;11.90;;;;;;;;;;4901037;29;20435;-77
2022/03/30 13:03:58;;;;;;;17.37;11.50;;;;;;;;;;4901389;29;20415;-78
2022/03/30 13:06:25;;;;;;;15.70;11.63;;;;;;;;;;4901327;29;20427;-74
2022/03/30 13:09:07;;;;;;;12.97;11.20;;;;;;;;;;4900925;29;20595;-75
2022/03/30 13:11:40;;;;;;;15.63;11.73;;;;;;;;;;4900472;29;20850;-78
2022/03/30 13:14:10;;;;;;;12.90;10.87;;;;;;;;;;4900939;29;20807;-75
2022/03/30 13:16:37;;;;;;;14.33;10.50;;;;;;;;;;4901183;29;20415;-75
2022/03/30 13:19:04;;;;;;;13.80;9.77;;;;;;;;;;4900881;29;20412;-75
2022/03/30 13:21:37;;;;;;;13.07;9.90;;;;;;;;;;4900421;29;20751;-75
2022/03/30 13:24:20;;;;;;;13.27;9.90;;;;;;;;;;4899497;29;20461;-77
2022/03/30 13:26:47;;;;;;;12.00;10.40;;;;;;;;;;4900936;29;20430;-75
2022/03/30 13:29:14;;;;;;;12.50;9.27;;;;;;;;;;4900879;29;20505;-76
2022/03/30 13:31:43;;;;;;;15.97;9.97;;;;;;;;;;4899930;29;20475;-75
2022/03/30 13:34:09;;;;;;;14.33;9.03;;;;;;;;;;4900631;29;20864;-78
2022/03/30 13:36:36;;;;;;;13.73;9.03;;;;;;;;;;4906319;29;20419;-74
2022/03/30 13:39:03;;;;;;;10.60;8.77;;;;;;;;;;4919547;29;20417;-77
2022/03/30 13:41:29;;;;;;;11.30;8.80;;;;;;;;;;4918969;29;20481;-74
2022/03/30 13:43:55;;;;;;;13.63;9.30;;;;;;;;;;4919294;29;20771;-76
2022/03/30 13:46:22;;;;;;;10.27;8.40;;;;;;;;;;4919157;29;20514;-76
2022/03/30 13:48:48;;;;;;;13.00;9.30;;;;;;;;;;4919373;29;20493;-76
2022/03/30 13:51:15;;;;;;;8.03;7.23;;;;;;;;;;4933308;29;20890;-77
2022/03/30 13:53:41;;;;;;;9.40;8.23;;;;;;;;;;4919273;29;20419;-75
2022/03/30 13:56:09;;;;;;;13.20;9.70;;;;;;;;;;4933820;29;20856;-74
2022/03/30 13:58:35;;;;;;;12.33;8.53;;;;;;;;;;4918393;29;20886;-78
2022/03/30 14:01:06;;;;;;;10.00;7.77;;;;;;;;;;4918706;29;20496;-78
2022/03/30 14:03:32;;;;;;;12.80;8.73;;;;;;;;;;4919137;29;20920;-75
2022/03/30 14:05:58;;;;;;;13.63;8.43;;;;;;;;;;4918744;29;20435;-78
2022/03/30 14:08:24;;;;;;;9.90;8.27;;;;;;;;;;4919077;29;20510;-76
2022/03/30 14:10:50;;;;;;;9.10;8.10;;;;;;;;;;4933037;29;20609;-74
2022/03/30 14:13:17;;;;;;;10.67;8.60;;;;;;;;;;4918999;29;20419;-75
2022/03/30 14:15:43;;;;;;;13.73;7.77;;;;;;;;;;4933425;29;20431;-77
2022/03/30 14:18:09;;;;;;;10.07;8.63;;;;;;;;;;4918858;29;20415;-76
2022/03/30 14:20:39;;;;;;;17.17;11.23;;;;;;;;;;4918205;29;20422;-75
2022/03/30 14:23:05;;;;;;;13.70;9.97;;;;;;;;;;4918666;29;20401;-77
2022/03/30 14:25:34;;;;;;;14.27;10.60;;;;;;;;;;4918755;29;20404;-74
2022/03/30 14:28:04;;;;;;;13.40;9.73;;;;;;;;;;4916474;29;20824;-74
2022/03/30 14:30:31;;;;;;;14.23;11.77;;;;;;;;;;4901810;29;20423;-78
2022/03/30 14:32:58;;;;;;;16.73;9.83;;;;;;;;;;4899725;29;20481;-76
2022/03/30 14:35:25;;;;;;;10.93;8.73;;;;;;;;;;4899564;29;20422;-76
2022/03/30 14:37:51;;;;;;;12.47;10.83;;;;;;;;;;4899353;29;20515;-75